createdAt,value
2023-04-07T00:00:42.949Z,3.99
2023-04-07T00:03:13.241Z,3.99
2023-04-07T00:05:42.360Z,3.98
2023-04-07T00:08:11.225Z,4.02
2023-04-07T00:10:40.628Z,3.99
2023-04-07T00:13:10.828Z,4.01
2023-04-07T00:15:39.689Z,4.01
2023-04-07T00:18:08.586Z,4.02
2023-04-07T00:20:38.623Z,4.05
2023-04-07T00:23:07.500Z,4.06
2023-04-07T00:25:36.369Z,4.06
2023-04-07T00:28:28.118Z,4.08
2023-04-07T00:30:56.976Z,4.07
2023-04-07T00:33:26.213Z,4.07
2023-04-07T00:35:58.114Z,4.10
2023-04-07T00:38:27.034Z,4.04
2023-04-07T00:40:59.571Z,4.12
2023-04-07T00:43:29.885Z,4.10
2023-04-07T00:45:58.771Z,4.09
2023-04-07T00:48:27.633Z,4.07
2023-04-07T00:50:56.590Z,4.01
2023-04-07T00:53:25.800Z,4.06
2023-04-07T00:55:54.726Z,4.07
2023-04-07T00:58:23.597Z,4.11
2023-04-07T01:01:01.716Z,4.13
2023-04-07T01:03:34.391Z,4.10
2023-04-07T01:06:04.544Z,4.12
2023-04-07T01:08:43.890Z,4.15
2023-04-07T01:11:19.604Z,4.19
2023-04-07T01:13:52.991Z,4.18
2023-04-07T01:16:42.886Z,4.16
2023-04-07T01:19:25.180Z,4.16
2023-04-07T01:22:01.922Z,4.19
2023-04-07T01:24:56.602Z,4.12
2023-04-07T01:27:36.624Z,4.08
2023-04-07T01:30:12.127Z,4.09
2023-04-07T01:32:43.670Z,4.12
2023-04-07T01:35:14.797Z,4.10
2023-04-07T01:37:46.824Z,4.10
2023-04-07T01:40:16.975Z,4.12
2023-04-07T01:42:47.569Z,4.12
2023-04-07T01:45:18.512Z,4.09
2023-04-07T01:47:48.770Z,4.12
2023-04-07T01:50:18.389Z,4.11
2023-04-07T01:52:47.547Z,4.11
2023-04-07T01:55:16.672Z,4.13
2023-04-07T01:58:11.231Z,4.12
2023-04-07T02:00:45.469Z,4.11
2023-04-07T02:03:24.642Z,4.11
2023-04-07T02:05:57.282Z,4.09
2023-04-07T02:08:32.377Z,4.07
2023-04-07T02:11:05.811Z,4.08
2023-04-07T02:13:40.616Z,4.10
2023-04-07T02:16:16.093Z,4.01
2023-04-07T02:18:46.870Z,4.03
2023-04-07T02:21:18.027Z,4.03
2023-04-07T02:23:48.975Z,3.99
2023-04-07T02:26:18.261Z,3.97
2023-04-07T02:28:46.992Z,3.96
2023-04-07T02:31:17.192Z,3.92
2023-04-07T02:33:48.957Z,3.90
2023-04-07T02:36:18.016Z,3.89
2023-04-07T02:38:46.792Z,3.84
2023-04-07T02:41:16.170Z,3.81
2023-04-07T02:43:44.876Z,3.80
2023-04-07T02:46:15.478Z,3.76
2023-04-07T02:48:47.248Z,3.74
2023-04-07T02:51:16.055Z,3.70
2023-04-07T02:53:44.833Z,3.68
2023-04-07T02:56:14.484Z,3.62
2023-04-07T02:58:43.364Z,3.57
2023-04-07T03:01:12.517Z,3.55
2023-04-07T03:03:42.790Z,3.52
2023-04-07T03:06:20.374Z,3.46
2023-04-07T03:09:05.673Z,3.49
2023-04-07T03:11:36.079Z,3.46
2023-04-07T03:14:05.390Z,3.49
2023-04-07T03:16:35.627Z,3.47
2023-04-07T03:19:09.720Z,3.49
2023-04-07T03:21:44.435Z,3.54
2023-04-07T03:24:13.606Z,3.50
2023-04-07T03:26:42.333Z,3.51
2023-04-07T03:29:20.882Z,3.58
2023-04-07T03:31:50.149Z,3.63
2023-04-07T03:34:22.811Z,3.66
2023-04-07T03:36:53.035Z,3.60
2023-04-07T03:39:21.776Z,3.64
2023-04-07T03:41:52.275Z,3.64
2023-04-07T03:44:21.339Z,3.67
2023-04-07T03:46:50.976Z,3.69
2023-04-07T03:49:21.426Z,3.70
2023-04-07T03:51:53.000Z,3.69
2023-04-07T03:54:22.805Z,3.70
2023-04-07T03:56:51.724Z,3.74
2023-04-07T03:59:24.998Z,3.75
2023-04-07T04:02:00.293Z,3.78
2023-04-07T04:04:30.777Z,3.77
2023-04-07T04:07:04.870Z,3.73
2023-04-07T04:09:44.722Z,3.68
2023-04-07T04:12:14.762Z,3.71
2023-04-07T04:14:58.267Z,3.74
2023-04-07T04:17:27.208Z,3.74
2023-04-07T04:19:56.465Z,3.76
2023-04-07T04:22:35.229Z,3.75
2023-04-07T04:25:04.271Z,3.73
2023-04-07T04:27:33.507Z,3.75
2023-04-07T04:30:11.621Z,3.65
2023-04-07T04:32:47.280Z,3.80
2023-04-07T04:35:18.476Z,3.83
2023-04-07T04:38:01.517Z,3.84
2023-04-07T04:40:30.289Z,3.86
2023-04-07T04:42:59.260Z,3.86
2023-04-07T04:45:28.884Z,3.84
2023-04-07T04:47:57.635Z,3.85
2023-04-07T04:50:26.548Z,3.85
2023-04-07T04:52:56.151Z,3.84
2023-04-07T04:55:27.735Z,3.81
2023-04-07T04:57:57.088Z,3.84
2023-04-07T05:00:35.929Z,3.85
2023-04-07T05:03:09.084Z,3.83
2023-04-07T05:05:42.096Z,3.82
2023-04-07T05:08:12.684Z,3.86
2023-04-07T05:10:45.654Z,3.90
2023-04-07T05:13:18.547Z,3.89
2023-04-07T05:15:49.013Z,3.93
2023-04-07T05:18:17.949Z,3.93
2023-04-07T05:20:47.445Z,3.94
2023-04-07T05:23:16.686Z,3.96
2023-04-07T05:25:49.971Z,4.01
2023-04-07T05:28:20.416Z,4.03
2023-04-07T05:30:50.736Z,4.04
2023-04-07T05:33:21.266Z,4.02
2023-04-07T05:35:54.454Z,4.03
2023-04-07T05:38:23.731Z,4.08
2023-04-07T05:40:56.327Z,4.15
2023-04-07T05:43:33.843Z,4.20
2023-04-07T05:46:03.092Z,4.22
2023-04-07T05:48:32.731Z,4.28
2023-04-07T05:51:01.830Z,4.27
2023-04-07T05:53:30.630Z,4.29
2023-04-07T05:56:01.588Z,4.25
2023-04-07T05:58:41.465Z,4.24
2023-04-07T06:01:11.931Z,4.20
2023-04-07T06:03:41.357Z,4.21
2023-04-07T06:06:17.756Z,4.24
2023-04-07T06:08:48.090Z,4.25
2023-04-07T06:11:18.551Z,4.18
2023-04-07T06:13:47.441Z,4.14
2023-04-07T06:16:17.466Z,4.21
2023-04-07T06:18:47.795Z,4.25
2023-04-07T06:21:16.743Z,4.24
2023-04-07T06:23:45.947Z,4.22
2023-04-07T06:26:14.999Z,4.17
2023-04-07T06:28:45.212Z,4.17
2023-04-07T06:31:15.006Z,4.17
2023-04-07T06:33:43.518Z,4.15
2023-04-07T06:36:12.528Z,4.16
2023-04-07T06:38:41.503Z,4.18
2023-04-07T06:41:13.401Z,4.12
2023-04-07T06:43:42.416Z,4.16
2023-04-07T06:46:12.685Z,4.15
2023-04-07T06:48:41.919Z,4.19
2023-04-07T06:51:10.757Z,4.12
2023-04-07T06:53:40.358Z,4.04
2023-04-07T06:56:11.008Z,4.03
2023-04-07T06:58:40.148Z,3.99
2023-04-07T07:01:08.795Z,4.06
2023-04-07T07:03:39.530Z,4.05
2023-04-07T07:06:08.717Z,4.08
2023-04-07T07:08:37.355Z,4.15
2023-04-07T07:11:06.365Z,4.22
2023-04-07T07:13:35.355Z,4.30
2023-04-07T07:16:06.650Z,4.40
2023-04-07T07:18:41.590Z,4.48
2023-04-07T07:21:11.091Z,4.54
2023-04-07T07:23:40.829Z,4.55
2023-04-07T07:26:10.114Z,4.59
2023-04-07T07:28:39.186Z,4.64
2023-04-07T07:31:13.399Z,4.65
2023-04-07T07:33:46.617Z,4.68
2023-04-07T07:36:15.628Z,4.71
2023-04-07T07:38:44.265Z,4.70
2023-04-07T07:41:13.449Z,4.66
2023-04-07T07:43:42.181Z,4.75
2023-04-07T07:46:11.076Z,4.84
2023-04-07T07:48:39.742Z,4.89
2023-04-07T07:51:09.987Z,4.98
2023-04-07T07:53:38.913Z,5.01
2023-04-07T07:56:07.503Z,5.11
2023-04-07T07:58:36.246Z,5.16
2023-04-07T08:01:04.909Z,5.27
2023-04-07T08:03:33.768Z,5.34
2023-04-07T08:06:03.333Z,5.36
2023-04-07T08:08:33.535Z,5.50
2023-04-07T08:11:03.209Z,5.62
2023-04-07T08:13:31.980Z,5.65
2023-04-07T08:16:01.156Z,5.69
2023-04-07T08:18:29.805Z,5.84
2023-04-07T08:20:58.907Z,5.87
2023-04-07T08:23:27.650Z,5.89
2023-04-07T08:25:57.721Z,5.95
2023-04-07T08:28:28.335Z,6.01
2023-04-07T08:30:57.057Z,6.11
2023-04-07T08:33:25.921Z,6.16
2023-04-07T08:35:54.841Z,6.22
2023-04-07T08:38:23.611Z,6.43
2023-04-07T08:41:01.978Z,6.77
2023-04-07T08:43:30.948Z,6.97
2023-04-07T08:45:59.890Z,7.17
2023-04-07T08:48:34.174Z,7.16
2023-04-07T08:51:08.630Z,7.29
2023-04-07T08:53:44.737Z,7.59
2023-04-07T09:35:56.378Z,7.54
2023-04-07T09:38:35.186Z,7.51
2023-04-07T09:41:11.725Z,7.54
2023-04-07T09:43:41.856Z,7.77
2023-04-07T09:46:13.300Z,7.79
2023-04-07T09:48:42.799Z,7.94
2023-04-07T09:51:14.708Z,7.97
2023-04-07T09:53:45.374Z,8.08
2023-04-07T09:56:16.447Z,8.06
2023-04-07T09:58:47.459Z,8.06
2023-04-07T10:01:18.371Z,8.18
2023-04-07T10:03:48.625Z,8.23
2023-04-07T10:06:19.651Z,8.13
2023-04-07T10:08:48.649Z,8.37
2023-04-07T10:11:18.209Z,8.78
2023-04-07T10:13:47.653Z,8.87
2023-04-07T10:16:17.373Z,9.02
2023-04-07T10:18:46.573Z,9.39
2023-04-07T10:21:19.886Z,9.44
2023-04-07T10:23:58.157Z,9.38
2023-04-07T10:26:31.929Z,9.42
2023-04-07T10:29:07.491Z,9.41
2023-04-07T10:31:38.866Z,9.55
2023-04-07T10:34:07.746Z,9.56
2023-04-07T10:36:39.038Z,9.66
2023-04-07T10:39:25.135Z,9.63
2023-04-07T10:41:54.181Z,9.42
2023-04-07T10:44:44.712Z,9.37
2023-04-07T10:47:14.524Z,9.68
2023-04-07T10:50:02.989Z,9.84
2023-04-07T10:52:33.583Z,9.80
2023-04-07T10:55:24.016Z,9.92
2023-04-07T10:58:18.405Z,9.91
2023-04-07T11:01:12.976Z,10.37
2023-04-07T11:03:43.553Z,10.47
2023-04-07T11:06:14.267Z,10.62
2023-04-07T11:08:48.993Z,10.49
2023-04-07T11:11:22.873Z,10.21
2023-04-07T11:13:52.872Z,10.07
2023-04-07T11:16:22.183Z,10.18
2023-04-07T11:18:51.072Z,10.55
2023-04-07T11:21:20.736Z,10.60
2023-04-07T11:23:51.342Z,10.81
2023-04-07T11:26:20.395Z,11.01
2023-04-07T11:28:51.897Z,11.13
2023-04-07T11:31:25.140Z,10.81
2023-04-07T11:33:56.394Z,10.61
2023-04-07T11:36:29.874Z,10.41
2023-04-07T11:39:02.499Z,10.27
2023-04-07T11:41:34.009Z,10.01
2023-04-07T11:44:10.896Z,10.05
2023-04-07T11:46:55.221Z,9.95
2023-04-07T11:49:25.176Z,9.77
2023-04-07T11:51:59.909Z,9.34
2023-04-07T11:54:40.739Z,9.82
2023-04-07T11:57:12.288Z,9.90
2023-04-07T11:59:41.615Z,10.00
2023-04-07T12:02:10.606Z,10.08
2023-04-07T12:04:41.191Z,10.04
2023-04-07T12:07:12.753Z,10.25
2023-04-07T12:09:43.059Z,10.26
2023-04-07T12:12:11.856Z,10.28
2023-04-07T12:14:40.506Z,10.10
2023-04-07T12:17:09.653Z,9.96
2023-04-07T12:19:39.878Z,9.99
2023-04-07T12:22:09.096Z,10.00
2023-04-07T12:24:37.840Z,9.95
2023-04-07T12:27:08.587Z,9.79
2023-04-07T12:29:37.809Z,9.82
2023-04-07T12:32:06.607Z,9.95
2023-04-07T12:34:38.286Z,10.01
2023-04-07T12:37:07.424Z,10.19
2023-04-07T12:39:36.137Z,10.30
2023-04-07T12:42:05.382Z,10.41
2023-04-07T12:44:35.822Z,10.32
2023-04-07T12:47:04.604Z,10.26
2023-04-07T12:49:33.334Z,9.95
2023-04-07T12:52:02.306Z,9.79
2023-04-07T12:54:31.065Z,9.77
2023-04-07T12:57:00.166Z,9.67
2023-04-07T12:59:28.925Z,9.57
2023-04-07T13:01:59.668Z,9.55
2023-04-07T13:04:30.727Z,9.65
2023-04-07T13:07:01.367Z,9.58
2023-04-07T13:09:30.331Z,9.64
2023-04-07T13:11:59.260Z,9.68
2023-04-07T13:14:28.166Z,9.70
2023-04-07T13:16:58.457Z,9.79
2023-04-07T13:19:27.354Z,9.85
2023-04-07T13:21:56.861Z,9.89
2023-04-07T13:24:28.236Z,9.84
2023-04-07T13:26:58.096Z,9.82
2023-04-07T13:29:27.583Z,9.88
2023-04-07T13:32:08.284Z,9.89
2023-04-07T13:34:38.119Z,9.98
2023-04-07T13:37:06.730Z,10.00
2023-04-07T13:39:35.511Z,9.93
2023-04-07T13:42:04.898Z,9.97
2023-04-07T13:44:33.988Z,9.97
2023-04-07T13:47:03.459Z,9.99
2023-04-07T13:49:33.844Z,9.99
2023-04-07T13:52:02.746Z,10.02
2023-04-07T13:54:31.480Z,9.90
2023-04-07T13:57:00.534Z,10.00
2023-04-07T13:59:29.332Z,9.99
2023-04-07T14:01:58.383Z,10.01
2023-04-07T14:04:27.547Z,9.79
2023-04-07T14:06:58.129Z,9.74
2023-04-07T14:09:26.932Z,9.73
2023-04-07T14:11:55.671Z,9.71
2023-04-07T14:14:24.497Z,9.64
2023-04-07T14:16:53.434Z,9.66
2023-04-07T14:19:23.641Z,9.60
2023-04-07T14:21:52.954Z,9.49
2023-04-07T14:24:23.176Z,9.37
2023-04-07T14:26:54.857Z,9.37
2023-04-07T14:29:24.064Z,9.41
2023-04-07T14:31:52.899Z,9.42
2023-04-07T14:34:23.487Z,9.39
2023-04-07T14:36:56.233Z,9.42
2023-04-07T14:39:26.639Z,9.33
2023-04-07T14:41:55.394Z,9.34
2023-04-07T14:44:24.194Z,9.37
2023-04-07T14:46:54.312Z,9.33
2023-04-07T14:49:23.543Z,9.31
2023-04-07T14:51:52.240Z,9.28
2023-04-07T14:54:21.897Z,9.26
2023-04-07T14:56:51.991Z,9.23
2023-04-07T14:59:20.967Z,9.29
2023-04-07T15:01:49.756Z,9.31
2023-04-07T15:04:18.717Z,9.32
2023-04-07T15:06:47.708Z,9.33
2023-04-07T15:09:16.552Z,9.24
2023-04-07T15:11:46.315Z,9.22
2023-04-07T15:14:16.552Z,9.03
2023-04-07T15:16:47.702Z,8.92
2023-04-07T15:19:16.581Z,8.93
2023-04-07T15:21:45.279Z,8.98
2023-04-07T15:24:16.040Z,9.03
2023-04-07T15:26:45.653Z,8.99
2023-04-07T15:29:15.762Z,8.92
2023-04-07T15:31:44.595Z,8.89
2023-04-07T15:34:14.368Z,8.85
2023-04-07T15:36:43.198Z,8.77
2023-04-07T15:39:11.911Z,8.71
2023-04-07T15:41:40.780Z,8.66
2023-04-07T15:44:09.500Z,8.62
2023-04-07T15:46:39.757Z,8.62
2023-04-07T15:49:08.559Z,8.60
2023-04-07T15:51:37.336Z,8.58
2023-04-07T15:54:06.129Z,8.55
2023-04-07T15:56:35.738Z,8.45
2023-04-07T15:59:04.539Z,8.22
2023-04-07T16:01:34.018Z,8.08
2023-04-07T16:04:04.354Z,7.99
2023-04-07T16:06:33.217Z,8.00
2023-04-07T16:09:01.935Z,7.98
2023-04-07T16:11:30.866Z,7.95
2023-04-07T16:13:59.535Z,7.89
2023-04-07T16:16:28.342Z,7.83
2023-04-07T16:18:57.128Z,7.72
2023-04-07T16:21:27.571Z,7.63
2023-04-07T16:23:56.400Z,7.59
2023-04-07T16:26:25.238Z,7.54
2023-04-07T16:28:53.948Z,7.54
2023-04-07T16:31:22.705Z,7.55
2023-04-07T16:33:52.063Z,7.49
2023-04-07T16:36:20.841Z,7.53
2023-04-07T16:38:51.321Z,7.44
2023-04-07T16:41:20.482Z,7.37
2023-04-07T16:43:49.441Z,7.32
2023-04-07T16:46:18.254Z,7.21
2023-04-07T16:48:47.901Z,7.15
2023-04-07T16:51:18.265Z,7.08
2023-04-07T16:53:47.752Z,7.01
2023-04-07T16:56:22.663Z,6.90
2023-04-07T16:58:52.256Z,6.82
2023-04-07T17:01:21.000Z,6.80
2023-04-07T17:03:50.492Z,6.83
2023-04-07T17:06:19.306Z,6.85
2023-04-07T17:08:49.131Z,6.83
2023-04-07T17:11:17.808Z,6.87
2023-04-07T17:13:48.870Z,6.87
2023-04-07T17:16:17.865Z,6.79
2023-04-07T17:18:48.234Z,6.82
2023-04-07T17:21:17.366Z,6.84
2023-04-07T17:23:46.304Z,6.86
2023-04-07T17:26:16.440Z,6.85
2023-04-07T17:28:46.170Z,6.85
2023-04-07T17:31:17.992Z,6.85
2023-04-07T17:33:48.341Z,6.82
2023-04-07T17:36:17.862Z,6.73
2023-04-07T17:38:46.679Z,6.68
2023-04-07T17:41:15.970Z,6.71
2023-04-07T17:43:45.107Z,6.68
2023-04-07T17:46:15.795Z,6.68
2023-04-07T17:48:45.084Z,6.61
2023-04-07T17:51:14.348Z,6.62
2023-04-07T17:53:43.032Z,6.57
2023-04-07T17:56:12.934Z,6.61
2023-04-07T17:58:41.994Z,6.56
2023-04-07T18:01:11.844Z,6.58
2023-04-07T18:03:42.483Z,6.51
2023-04-07T18:06:11.346Z,6.45
2023-04-07T18:08:40.060Z,6.36
2023-04-07T18:11:08.848Z,6.37
2023-04-07T18:13:37.624Z,6.31
2023-04-07T18:16:09.857Z,6.30
2023-04-07T18:18:38.994Z,6.30
2023-04-07T18:21:09.379Z,6.26
2023-04-07T18:23:38.190Z,6.26
2023-04-07T18:26:07.424Z,6.30
2023-04-07T18:28:36.526Z,6.30
2023-04-07T18:31:07.910Z,6.32
2023-04-07T18:33:37.818Z,6.25
2023-04-07T18:36:09.314Z,6.28
2023-04-07T18:38:38.263Z,6.29
2023-04-07T18:41:08.681Z,6.27
2023-04-07T18:43:37.572Z,6.22
2023-04-07T18:46:06.412Z,6.13
2023-04-07T18:48:35.594Z,6.04
2023-04-07T18:51:04.566Z,6.02
2023-04-07T18:53:34.878Z,6.00
2023-04-07T18:56:03.752Z,5.99
2023-04-07T18:58:32.700Z,5.95
2023-04-07T19:01:01.560Z,5.95
2023-04-07T19:03:30.609Z,6.00
2023-04-07T19:06:02.834Z,6.01
2023-04-07T19:08:32.273Z,5.97
2023-04-07T19:11:02.431Z,5.95
2023-04-07T19:13:31.345Z,5.97
2023-04-07T19:16:00.459Z,5.98
2023-04-07T19:18:29.505Z,5.91
2023-04-07T19:20:58.318Z,5.85
2023-04-07T19:23:27.301Z,5.84
2023-04-07T19:25:56.082Z,5.84
2023-04-07T19:28:26.671Z,5.86
2023-04-07T19:30:56.219Z,5.83
2023-04-07T19:33:24.955Z,5.82
2023-04-07T19:35:54.178Z,5.82
2023-04-07T19:38:22.910Z,5.80
2023-04-07T19:40:52.408Z,5.74
2023-04-07T19:43:21.362Z,5.64
2023-04-07T19:45:51.669Z,5.68
2023-04-07T19:48:20.468Z,5.67
2023-04-07T19:50:50.218Z,5.63
2023-04-07T19:53:19.016Z,5.55
2023-04-07T19:55:51.052Z,5.63
2023-04-07T19:58:22.438Z,5.65
2023-04-07T20:00:54.324Z,5.67
2023-04-07T20:03:23.479Z,5.65
2023-04-07T20:05:53.275Z,5.67
2023-04-07T20:08:22.104Z,5.64
2023-04-07T20:10:52.756Z,5.63
2023-04-07T20:13:21.711Z,5.62
2023-04-07T20:15:50.406Z,5.67
2023-04-07T20:18:20.716Z,5.64
2023-04-07T20:20:50.426Z,5.62
2023-04-07T20:23:22.332Z,5.61
2023-04-07T20:25:52.048Z,5.62
2023-04-07T20:28:21.509Z,5.63
2023-04-07T20:30:50.319Z,5.64
2023-04-07T20:33:20.669Z,5.62
2023-04-07T20:35:49.657Z,5.59
2023-04-07T20:38:18.859Z,5.54
2023-04-07T20:40:47.641Z,5.51
2023-04-07T20:43:18.298Z,5.53
2023-04-07T20:45:47.635Z,5.58
2023-04-07T20:48:18.686Z,5.52
2023-04-07T20:50:49.076Z,5.47
2023-04-07T20:53:18.683Z,5.47
2023-04-07T20:55:47.544Z,5.52
2023-04-07T20:58:17.972Z,5.45
2023-04-07T21:00:46.955Z,5.45
2023-04-07T21:03:16.185Z,5.49
2023-04-07T21:05:45.976Z,5.54
2023-04-07T21:08:16.305Z,5.66
2023-04-07T21:10:45.020Z,5.61
2023-04-07T21:13:13.869Z,5.54
2023-04-07T21:15:44.346Z,5.53
2023-04-07T21:18:13.935Z,5.54
2023-04-07T21:20:42.699Z,5.54
2023-04-07T21:23:11.485Z,5.52
2023-04-07T21:25:41.582Z,5.53
2023-04-07T21:28:10.600Z,5.57
2023-04-07T21:30:42.363Z,5.56
2023-04-07T21:33:11.322Z,5.58
2023-04-07T21:35:40.275Z,5.67
2023-04-07T21:38:09.509Z,5.71
2023-04-07T21:40:38.523Z,5.74
2023-04-07T21:43:08.761Z,5.76
2023-04-07T21:45:37.509Z,5.79
2023-04-07T21:48:06.950Z,5.82
2023-04-07T21:50:36.147Z,5.75
2023-04-07T21:53:04.897Z,5.81
2023-04-07T21:55:33.741Z,5.73
2023-04-07T21:58:02.664Z,5.82
2023-04-07T22:00:32.973Z,5.81
2023-04-07T22:03:02.103Z,5.77
2023-04-07T22:05:31.212Z,5.66
2023-04-07T22:08:00.011Z,5.67
2023-04-07T22:10:28.949Z,5.74
2023-04-07T22:12:57.664Z,5.78
2023-04-07T22:15:26.557Z,5.79
2023-04-07T22:17:57.964Z,5.80
2023-04-07T22:20:27.309Z,5.73
2023-04-07T22:22:57.916Z,5.73
2023-04-07T22:25:27.180Z,5.78
2023-04-07T22:27:57.140Z,5.79
2023-04-07T22:30:26.408Z,5.75
2023-04-07T22:32:56.720Z,5.77
2023-04-07T22:35:26.171Z,5.75
2023-04-07T22:37:54.972Z,5.82
2023-04-07T22:40:23.918Z,5.82
2023-04-07T22:42:52.575Z,5.79
2023-04-07T22:45:21.471Z,5.80
2023-04-07T22:47:50.170Z,5.82
2023-04-07T22:50:20.393Z,5.85
2023-04-07T22:52:49.201Z,5.79
2023-04-07T22:55:18.149Z,5.78
2023-04-07T22:57:47.352Z,5.74
2023-04-07T23:00:16.985Z,5.69
2023-04-07T23:02:45.941Z,5.77
2023-04-07T23:05:14.648Z,5.79
2023-04-07T23:07:46.616Z,5.52
2023-04-07T23:10:15.776Z,5.71
2023-04-07T23:12:44.627Z,5.66
2023-04-07T23:15:14.315Z,5.49
2023-04-07T23:17:43.244Z,5.45
2023-04-07T23:20:12.345Z,5.40
2023-04-07T23:22:41.365Z,5.32
2023-04-07T23:25:11.788Z,5.34
2023-04-07T23:27:40.584Z,5.37
2023-04-07T23:30:10.648Z,5.33
2023-04-07T23:32:39.477Z,5.35
2023-04-07T23:35:08.738Z,5.33
2023-04-07T23:37:37.628Z,5.31
2023-04-07T23:40:07.448Z,5.30
2023-04-07T23:42:38.233Z,5.26
2023-04-07T23:45:08.264Z,5.28
2023-04-07T23:47:37.223Z,5.25
2023-04-07T23:50:06.736Z,5.27
2023-04-07T23:52:35.918Z,5.27
2023-04-07T23:55:05.043Z,5.22
2023-04-07T23:57:33.892Z,5.18
